sensor_id;sensor_type;location;lat;lon;timestamp;P1;durP1;ratioP1;P2;durP2;ratioP2
7989;SDS011;4040;42.848;23.034;2023-04-03T00:03:37;2.67;;;1.90;;
7989;SDS011;4040;42.848;23.034;2023-04-03T00:13:51;5.13;;;3.00;;
7989;SDS011;4040;42.848;23.034;2023-04-03T00:19:39;5.90;;;3.60;;
7989;SDS011;4040;42.848;23.034;2023-04-03T00:25:28;8.53;;;4.83;;
7989;SDS011;4040;42.848;23.034;2023-04-03T00:31:18;3.93;;;2.43;;
7989;SDS011;4040;42.848;23.034;2023-04-03T00:37:07;4.20;;;2.70;;
7989;SDS011;4040;42.848;23.034;2023-04-03T00:42:56;3.90;;;2.70;;
7989;SDS011;4040;42.848;23.034;2023-04-03T00:48:48;7.93;;;4.03;;
7989;SDS011;4040;42.848;23.034;2023-04-03T00:54:37;5.03;;;3.57;;
7989;SDS011;4040;42.848;23.034;2023-04-03T01:00:28;5.47;;;3.00;;
7989;SDS011;4040;42.848;23.034;2023-04-03T01:06:20;8.27;;;4.07;;
7989;SDS011;4040;42.848;23.034;2023-04-03T01:16:34;3.23;;;2.63;;
7989;SDS011;4040;42.848;23.034;2023-04-03T01:22:26;3.30;;;2.73;;
7989;SDS011;4040;42.848;23.034;2023-04-03T01:28:24;5.20;;;3.43;;
7989;SDS011;4040;42.848;23.034;2023-04-03T01:34:16;3.90;;;3.10;;
7989;SDS011;4040;42.848;23.034;2023-04-03T01:40:05;3.07;;;2.40;;
7989;SDS011;4040;42.848;23.034;2023-04-03T01:45:55;3.90;;;2.83;;
7989;SDS011;4040;42.848;23.034;2023-04-03T01:51:45;2.90;;;2.60;;
7989;SDS011;4040;42.848;23.034;2023-04-03T01:57:34;6.53;;;3.37;;
7989;SDS011;4040;42.848;23.034;2023-04-03T02:03:23;2.63;;;2.40;;
7989;SDS011;4040;42.848;23.034;2023-04-03T02:09:13;3.30;;;2.47;;
7989;SDS011;4040;42.848;23.034;2023-04-03T02:19:23;54.17;;;28.30;;
7989;SDS011;4040;42.848;23.034;2023-04-03T02:25:14;28.27;;;19.97;;
7989;SDS011;4040;42.848;23.034;2023-04-03T02:31:04;5.87;;;4.43;;
7989;SDS011;4040;42.848;23.034;2023-04-03T02:36:53;2.97;;;2.77;;
7989;SDS011;4040;42.848;23.034;2023-04-03T02:42:44;10.60;;;5.23;;
7989;SDS011;4040;42.848;23.034;2023-04-03T02:48:33;3.20;;;2.67;;
7989;SDS011;4040;42.848;23.034;2023-04-03T02:54:21;3.17;;;2.77;;
7989;SDS011;4040;42.848;23.034;2023-04-03T03:00:16;2.87;;;2.40;;
7989;SDS011;4040;42.848;23.034;2023-04-03T03:06:05;2.40;;;2.20;;
7989;SDS011;4040;42.848;23.034;2023-04-03T03:11:55;2.63;;;2.30;;
7989;SDS011;4040;42.848;23.034;2023-04-03T03:22:07;2.40;;;2.20;;
7989;SDS011;4040;42.848;23.034;2023-04-03T03:27:56;2.40;;;2.20;;
7989;SDS011;4040;42.848;23.034;2023-04-03T03:33:44;3.47;;;2.87;;
7989;SDS011;4040;42.848;23.034;2023-04-03T03:39:35;4.13;;;3.20;;
7989;SDS011;4040;42.848;23.034;2023-04-03T03:45:23;6.00;;;3.80;;
7989;SDS011;4040;42.848;23.034;2023-04-03T03:51:12;6.97;;;4.30;;
7989;SDS011;4040;42.848;23.034;2023-04-03T03:57:02;6.70;;;3.93;;
7989;SDS011;4040;42.848;23.034;2023-04-03T04:02:51;4.23;;;3.77;;
7989;SDS011;4040;42.848;23.034;2023-04-03T04:08:40;13.80;;;8.50;;
7989;SDS011;4040;42.848;23.034;2023-04-03T04:14:30;12.90;;;6.97;;
7989;SDS011;4040;42.848;23.034;2023-04-03T04:24:40;19.67;;;9.40;;
7989;SDS011;4040;42.848;23.034;2023-04-03T04:30:30;13.63;;;8.47;;
7989;SDS011;4040;42.848;23.034;2023-04-03T04:36:19;17.30;;;10.23;;
7989;SDS011;4040;42.848;23.034;2023-04-03T04:42:08;19.07;;;9.07;;
7989;SDS011;4040;42.848;23.034;2023-04-03T04:48:00;21.33;;;10.40;;
7989;SDS011;4040;42.848;23.034;2023-04-03T04:53:49;27.20;;;12.23;;
7989;SDS011;4040;42.848;23.034;2023-04-03T04:59:38;24.77;;;13.03;;
7989;SDS011;4040;42.848;23.034;2023-04-03T05:05:28;11.80;;;7.30;;
7989;SDS011;4040;42.848;23.034;2023-04-03T05:11:17;24.17;;;14.03;;
7989;SDS011;4040;42.848;23.034;2023-04-03T05:17:06;25.37;;;16.87;;
7989;SDS011;4040;42.848;23.034;2023-04-03T05:27:18;21.20;;;12.37;;
7989;SDS011;4040;42.848;23.034;2023-04-03T05:33:06;28.43;;;13.90;;
7989;SDS011;4040;42.848;23.034;2023-04-03T05:38:55;22.07;;;12.37;;
7989;SDS011;4040;42.848;23.034;2023-04-03T05:44:45;37.40;;;17.97;;
7989;SDS011;4040;42.848;23.034;2023-04-03T05:50:35;30.07;;;18.37;;
7989;SDS011;4040;42.848;23.034;2023-04-03T05:56:28;41.87;;;25.43;;
7989;SDS011;4040;42.848;23.034;2023-04-03T06:02:19;7.87;;;5.17;;
7989;SDS011;4040;42.848;23.034;2023-04-03T06:08:09;10.60;;;5.23;;
7989;SDS011;4040;42.848;23.034;2023-04-03T06:13:58;5.47;;;3.93;;
7989;SDS011;4040;42.848;23.034;2023-04-03T06:19:48;13.90;;;6.33;;
7989;SDS011;4040;42.848;23.034;2023-04-03T06:29:59;21.00;;;11.60;;
7989;SDS011;4040;42.848;23.034;2023-04-03T06:35:49;11.67;;;7.57;;
7989;SDS011;4040;42.848;23.034;2023-04-03T06:41:43;5.70;;;3.90;;
7989;SDS011;4040;42.848;23.034;2023-04-03T06:47:32;9.73;;;5.93;;
7989;SDS011;4040;42.848;23.034;2023-04-03T06:53:22;7.23;;;3.93;;
7989;SDS011;4040;42.848;23.034;2023-04-03T06:59:12;6.87;;;3.60;;
7989;SDS011;4040;42.848;23.034;2023-04-03T07:05:01;7.50;;;4.63;;
7989;SDS011;4040;42.848;23.034;2023-04-03T07:10:51;9.03;;;3.67;;
7989;SDS011;4040;42.848;23.034;2023-04-03T07:16:40;3.43;;;2.83;;
7989;SDS011;4040;42.848;23.034;2023-04-03T07:22:30;3.60;;;2.83;;
7989;SDS011;4040;42.848;23.034;2023-04-03T07:32:42;4.70;;;2.47;;
7989;SDS011;4040;42.848;23.034;2023-04-03T07:38:30;3.90;;;2.05;;
7989;SDS011;4040;42.848;23.034;2023-04-03T07:44:19;2.63;;;1.88;;
7989;SDS011;4040;42.848;23.034;2023-04-03T07:50:10;1.80;;;1.70;;
7989;SDS011;4040;42.848;23.034;2023-04-03T07:55:59;4.65;;;2.30;;
7989;SDS011;4040;42.848;23.034;2023-04-03T08:01:49;1.90;;;1.77;;
7989;SDS011;4040;42.848;23.034;2023-04-03T08:07:39;4.85;;;2.20;;
7989;SDS011;4040;42.848;23.034;2023-04-03T08:13:28;5.50;;;2.58;;
7989;SDS011;4040;42.848;23.034;2023-04-03T08:19:17;2.55;;;2.00;;
7989;SDS011;4040;42.848;23.034;2023-04-03T08:25:07;7.15;;;3.58;;
7989;SDS011;4040;42.848;23.034;2023-04-03T08:35:18;3.47;;;2.50;;
7989;SDS011;4040;42.848;23.034;2023-04-03T08:41:13;4.13;;;2.70;;
7989;SDS011;4040;42.848;23.034;2023-04-03T08:47:09;6.28;;;2.85;;
7989;SDS011;4040;42.848;23.034;2023-04-03T08:53:06;7.30;;;2.65;;
7989;SDS011;4040;42.848;23.034;2023-04-03T08:59:04;3.60;;;2.30;;
7989;SDS011;4040;42.848;23.034;2023-04-03T09:04:57;3.53;;;1.92;;
7989;SDS011;4040;42.848;23.034;2023-04-03T09:10:46;3.80;;;1.50;;
7989;SDS011;4040;42.848;23.034;2023-04-03T09:16:39;11.13;;;5.47;;
7989;SDS011;4040;42.848;23.034;2023-04-03T09:22:36;1.83;;;1.58;;
7989;SDS011;4040;42.848;23.034;2023-04-03T09:28:31;5.68;;;2.03;;
7989;SDS011;4040;42.848;23.034;2023-04-03T09:38:46;2.90;;;2.00;;
7989;SDS011;4040;42.848;23.034;2023-04-03T09:44:53;8.55;;;3.80;;
7989;SDS011;4040;42.848;23.034;2023-04-03T09:50:57;2.90;;;2.40;;
7989;SDS011;4040;42.848;23.034;2023-04-03T09:56:51;2.92;;;2.13;;
7989;SDS011;4040;42.848;23.034;2023-04-03T10:02:42;6.57;;;3.72;;
7989;SDS011;4040;42.848;23.034;2023-04-03T10:08:32;4.45;;;3.33;;
7989;SDS011;4040;42.848;23.034;2023-04-03T10:14:23;3.28;;;2.97;;
7989;SDS011;4040;42.848;23.034;2023-04-03T10:20:18;3.05;;;2.38;;
7989;SDS011;4040;42.848;23.034;2023-04-03T10:26:17;4.43;;;2.90;;
7989;SDS011;4040;42.848;23.034;2023-04-03T10:32:32;3.55;;;2.35;;
7989;SDS011;4040;42.848;23.034;2023-04-03T10:38:36;11.60;;;6.97;;
7989;SDS011;4040;42.848;23.034;2023-04-03T10:44:34;6.88;;;3.90;;
7989;SDS011;4040;42.848;23.034;2023-04-03T10:50:35;3.83;;;2.22;;
7989;SDS011;4040;42.848;23.034;2023-04-03T10:56:32;10.10;;;4.30;;
7989;SDS011;4040;42.848;23.034;2023-04-03T11:02:27;7.82;;;3.47;;
7989;SDS011;4040;42.848;23.034;2023-04-03T11:08:21;15.07;;;5.90;;
7989;SDS011;4040;42.848;23.034;2023-04-03T11:14:17;15.73;;;6.93;;
7989;SDS011;4040;42.848;23.034;2023-04-03T11:20:15;13.98;;;12.55;;
7989;SDS011;4040;42.848;23.034;2023-04-03T11:26:11;5.63;;;4.03;;
7989;SDS011;4040;42.848;23.034;2023-04-03T11:32:06;4.15;;;3.47;;
7989;SDS011;4040;42.848;23.034;2023-04-03T11:38:04;8.13;;;5.73;;
7989;SDS011;4040;42.848;23.034;2023-04-03T11:43:59;5.03;;;4.20;;
7989;SDS011;4040;42.848;23.034;2023-04-03T11:49:54;5.17;;;3.63;;
7989;SDS011;4040;42.848;23.034;2023-04-03T11:55:46;3.97;;;3.57;;
7989;SDS011;4040;42.848;23.034;2023-04-03T12:01:44;10.43;;;6.77;;
7989;SDS011;4040;42.848;23.034;2023-04-03T12:07:34;5.37;;;3.93;;
7989;SDS011;4040;42.848;23.034;2023-04-03T12:13:23;8.00;;;4.00;;
7989;SDS011;4040;42.848;23.034;2023-04-03T12:19:29;5.43;;;4.23;;
7989;SDS011;4040;42.848;23.034;2023-04-03T12:31:38;7.10;;;5.70;;
7989;SDS011;4040;42.848;23.034;2023-04-03T12:42:03;5.87;;;5.27;;
7989;SDS011;4040;42.848;23.034;2023-04-03T12:48:04;6.90;;;6.20;;
7989;SDS011;4040;42.848;23.034;2023-04-03T12:54:02;8.50;;;5.10;;
7989;SDS011;4040;42.848;23.034;2023-04-03T13:00:06;5.90;;;5.30;;
7989;SDS011;4040;42.848;23.034;2023-04-03T13:06:10;9.87;;;7.47;;
7989;SDS011;4040;42.848;23.034;2023-04-03T13:12:09;6.90;;;5.73;;
7989;SDS011;4040;42.848;23.034;2023-04-03T13:18:01;10.27;;;7.77;;
7989;SDS011;4040;42.848;23.034;2023-04-03T13:23:50;6.63;;;5.87;;
7989;SDS011;4040;42.848;23.034;2023-04-03T13:29:41;14.77;;;9.87;;
7989;SDS011;4040;42.848;23.034;2023-04-03T13:35:33;8.27;;;6.37;;
7989;SDS011;4040;42.848;23.034;2023-04-03T13:41:25;10.70;;;7.47;;
7989;SDS011;4040;42.848;23.034;2023-04-03T13:47:19;6.00;;;4.87;;
7989;SDS011;4040;42.848;23.034;2023-04-03T13:53:11;8.77;;;5.93;;
7989;SDS011;4040;42.848;23.034;2023-04-03T13:59:04;7.83;;;6.10;;
7989;SDS011;4040;42.848;23.034;2023-04-03T14:05:08;0.70;;;0.70;;
7989;SDS011;4040;42.848;23.034;2023-04-03T14:10:58;1.20;;;1.00;;
7989;SDS011;4040;42.848;23.034;2023-04-03T14:16:49;0.80;;;0.80;;
7989;SDS011;4040;42.848;23.034;2023-04-03T14:22:39;0.43;;;0.43;;
7989;SDS011;4040;42.848;23.034;2023-04-03T14:28:30;0.60;;;0.60;;
7989;SDS011;4040;42.848;23.034;2023-04-03T14:34:19;1.33;;;0.93;;
7989;SDS011;4040;42.848;23.034;2023-04-03T14:44:32;1.10;;;1.00;;
7989;SDS011;4040;42.848;23.034;2023-04-03T14:50:21;1.77;;;1.30;;
7989;SDS011;4040;42.848;23.034;2023-04-03T14:56:13;1.93;;;1.83;;
7989;SDS011;4040;42.848;23.034;2023-04-03T15:02:09;1.77;;;1.63;;
7989;SDS011;4040;42.848;23.034;2023-04-03T15:08:17;1.87;;;1.60;;
7989;SDS011;4040;42.848;23.034;2023-04-03T15:14:08;0.80;;;0.80;;
7989;SDS011;4040;42.848;23.034;2023-04-03T15:19:59;3.87;;;2.67;;
7989;SDS011;4040;42.848;23.034;2023-04-03T15:25:48;0.97;;;0.97;;
7989;SDS011;4040;42.848;23.034;2023-04-03T15:31:37;1.00;;;1.00;;
7989;SDS011;4040;42.848;23.034;2023-04-03T15:37:27;2.73;;;1.77;;
7989;SDS011;4040;42.848;23.034;2023-04-03T15:47:38;1.17;;;0.90;;
7989;SDS011;4040;42.848;23.034;2023-04-03T15:53:29;1.43;;;0.90;;
7989;SDS011;4040;42.848;23.034;2023-04-03T15:59:17;2.80;;;1.97;;
7989;SDS011;4040;42.848;23.034;2023-04-03T16:05:07;2.10;;;1.80;;
7989;SDS011;4040;42.848;23.034;2023-04-03T16:10:58;1.70;;;1.60;;
7989;SDS011;4040;42.848;23.034;2023-04-03T16:16:47;1.37;;;1.27;;
7989;SDS011;4040;42.848;23.034;2023-04-03T16:22:36;1.77;;;1.30;;
7989;SDS011;4040;42.848;23.034;2023-04-03T16:28:26;1.70;;;1.60;;
7989;SDS011;4040;42.848;23.034;2023-04-03T16:34:15;2.30;;;1.63;;
7989;SDS011;4040;42.848;23.034;2023-04-03T16:40:04;4.30;;;1.57;;
7989;SDS011;4040;42.848;23.034;2023-04-03T16:50:18;1.70;;;1.60;;
7989;SDS011;4040;42.848;23.034;2023-04-03T16:56:07;6.13;;;3.53;;
7989;SDS011;4040;42.848;23.034;2023-04-03T17:01:55;2.43;;;2.20;;
7989;SDS011;4040;42.848;23.034;2023-04-03T17:07:46;1.77;;;1.67;;
7989;SDS011;4040;42.848;23.034;2023-04-03T17:13:34;0.70;;;0.70;;
7989;SDS011;4040;42.848;23.034;2023-04-03T17:19:24;2.33;;;1.73;;
7989;SDS011;4040;42.848;23.034;2023-04-03T17:25:24;1.97;;;1.87;;
7989;SDS011;4040;42.848;23.034;2023-04-03T17:31:33;4.53;;;1.57;;
7989;SDS011;4040;42.848;23.034;2023-04-03T17:37:22;2.83;;;1.97;;
7989;SDS011;4040;42.848;23.034;2023-04-03T17:43:12;0.93;;;0.93;;
7989;SDS011;4040;42.848;23.034;2023-04-03T17:53:03;0.97;;;0.80;;
7989;SDS011;4040;42.848;23.034;2023-04-03T17:58:54;1.13;;;1.13;;
7989;SDS011;4040;42.848;23.034;2023-04-03T18:04:44;3.23;;;2.60;;
7989;SDS011;4040;42.848;23.034;2023-04-03T18:10:34;5.33;;;3.43;;
7989;SDS011;4040;42.848;23.034;2023-04-03T18:16:24;3.00;;;2.80;;
7989;SDS011;4040;42.848;23.034;2023-04-03T18:22:13;3.03;;;2.50;;
7989;SDS011;4040;42.848;23.034;2023-04-03T18:28:06;2.13;;;1.97;;
7989;SDS011;4040;42.848;23.034;2023-04-03T18:33:56;2.47;;;1.87;;
7989;SDS011;4040;42.848;23.034;2023-04-03T18:39:45;1.47;;;1.37;;
7989;SDS011;4040;42.848;23.034;2023-04-03T18:45:33;1.10;;;1.10;;
7989;SDS011;4040;42.848;23.034;2023-04-03T18:55:45;2.43;;;1.87;;
7989;SDS011;4040;42.848;23.034;2023-04-03T19:01:34;1.80;;;1.07;;
7989;SDS011;4040;42.848;23.034;2023-04-03T19:07:23;2.43;;;2.23;;
7989;SDS011;4040;42.848;23.034;2023-04-03T19:13:13;2.63;;;2.43;;
7989;SDS011;4040;42.848;23.034;2023-04-03T19:19:02;1.43;;;1.33;;
7989;SDS011;4040;42.848;23.034;2023-04-03T19:24:51;0.63;;;0.63;;
7989;SDS011;4040;42.848;23.034;2023-04-03T19:30:41;3.00;;;1.80;;
7989;SDS011;4040;42.848;23.034;2023-04-03T19:36:34;2.13;;;1.77;;
7989;SDS011;4040;42.848;23.034;2023-04-03T19:42:26;2.13;;;1.73;;
7989;SDS011;4040;42.848;23.034;2023-04-03T19:48:17;1.40;;;1.30;;
7989;SDS011;4040;42.848;23.034;2023-04-03T19:58:27;1.90;;;1.80;;
7989;SDS011;4040;42.848;23.034;2023-04-03T20:04:17;1.50;;;1.40;;
7989;SDS011;4040;42.848;23.034;2023-04-03T20:10:07;2.97;;;1.13;;
7989;SDS011;4040;42.848;23.034;2023-04-03T20:16:00;3.07;;;1.73;;
7989;SDS011;4040;42.848;23.034;2023-04-03T20:21:51;1.60;;;1.50;;
7989;SDS011;4040;42.848;23.034;2023-04-03T20:27:41;1.50;;;0.93;;
7989;SDS011;4040;42.848;23.034;2023-04-03T20:33:30;0.77;;;0.77;;
7989;SDS011;4040;42.848;23.034;2023-04-03T20:39:20;1.00;;;1.00;;
7989;SDS011;4040;42.848;23.034;2023-04-03T20:45:10;1.20;;;1.10;;
7989;SDS011;4040;42.848;23.034;2023-04-03T20:51:06;2.67;;;1.70;;
7989;SDS011;4040;42.848;23.034;2023-04-03T21:01:20;1.63;;;1.53;;
7989;SDS011;4040;42.848;23.034;2023-04-03T21:20:06;7.70;;;1.57;;
7989;SDS011;4040;42.848;23.034;2023-04-03T21:25:55;1.23;;;1.13;;
7989;SDS011;4040;42.848;23.034;2023-04-03T21:31:47;1.57;;;1.47;;
7989;SDS011;4040;42.848;23.034;2023-04-03T21:37:40;1.07;;;1.00;;
7989;SDS011;4040;42.848;23.034;2023-04-03T21:43:28;0.70;;;0.70;;
7989;SDS011;4040;42.848;23.034;2023-04-03T21:49:17;0.90;;;0.90;;
7989;SDS011;4040;42.848;23.034;2023-04-03T21:55:08;0.70;;;0.70;;
7989;SDS011;4040;42.848;23.034;2023-04-03T22:08:29;4.57;;;1.10;;
7989;SDS011;4040;42.848;23.034;2023-04-03T22:14:19;0.83;;;0.80;;
7989;SDS011;4040;42.848;23.034;2023-04-03T22:20:08;0.70;;;0.70;;
7989;SDS011;4040;42.848;23.034;2023-04-03T22:26:02;1.60;;;0.93;;
7989;SDS011;4040;42.848;23.034;2023-04-03T22:31:52;0.97;;;0.97;;
7989;SDS011;4040;42.848;23.034;2023-04-03T22:37:40;0.50;;;0.50;;
7989;SDS011;4040;42.848;23.034;2023-04-03T22:43:31;0.47;;;0.47;;
7989;SDS011;4040;42.848;23.034;2023-04-03T22:49:20;1.23;;;1.13;;
7989;SDS011;4040;42.848;23.034;2023-04-03T22:55:09;0.77;;;0.77;;
7989;SDS011;4040;42.848;23.034;2023-04-03T23:01:04;0.63;;;0.63;;
7989;SDS011;4040;42.848;23.034;2023-04-03T23:03:32;0.50;;;0.50;;
7989;SDS011;4040;42.848;23.034;2023-04-03T23:09:21;1.83;;;1.17;;
7989;SDS011;4040;42.848;23.034;2023-04-03T23:15:10;0.67;;;0.67;;
7989;SDS011;4040;42.848;23.034;2023-04-03T23:21:01;1.07;;;1.03;;
7989;SDS011;4040;42.848;23.034;2023-04-03T23:26:50;0.70;;;0.70;;
7989;SDS011;4040;42.848;23.034;2023-04-03T23:32:39;0.83;;;0.83;;
7989;SDS011;4040;42.848;23.034;2023-04-03T23:38:29;0.57;;;0.57;;
7989;SDS011;4040;42.848;23.034;2023-04-03T23:44:17;3.13;;;0.97;;
7989;SDS011;4040;42.848;23.034;2023-04-03T23:50:06;1.07;;;1.00;;
7989;SDS011;4040;42.848;23.034;2023-04-03T23:55:57;0.40;;;0.40;;
